Rachel, Nevada Weather observations

Data are for observation ending at time listed.
 Day   Time    Ave.   Ave.  Ave.  Vector   Max.   Stn.    Total    Solar   Ave.  
  of    of     Air    Rel.  Wind   Wind    Wind   Baro.  Precip.   Rad.    Soil  
Year   Day     Temp.  Hum.  Speed  Dir.    Gust   Pres.                    Temp. 
2016   (PST)    F      %     mph   deg.    mph     mb.     in.     W/m2     F   
------------------------------------------------------------------------------
 342   17:40   25.7    31    5.3    56      7.1   851.1    0.00       0    31.9
 342   17:50   28.9    28    3.5    40      6.3   850.9    0.00       0    31.6
 342   18:00   25.4    30    4.1   205      6.7   850.7    0.00       0    31.5
 342   18:10   23.7    32    5.7   212      6.6   850.8    0.00       0    31.3
 342   18:20   23.7    32    5.9   220      7.4   850.7    0.00       0    31.1
 342   18:30   23.3    32    5.9   210      7.0   850.9    0.00       0    30.8
 342   18:40   23.5    33    7.2   226      8.3   851.1    0.00       0    31.0
 342   18:50   24.8    32    5.7   244      7.4   851.0    0.00       0    30.9
 342   19:00   23.9    33    6.0   229      7.3   850.9    0.00       0    30.8
 342   19:10   25.4    32    3.8   243      5.8   851.0    0.00       0    30.9
 342   19:20   25.0    33    4.8   245      6.3   851.1    0.00       0    30.6
 342   19:30   24.7    34    5.4   260      6.5   851.2    0.00       0    30.7
 342   19:40   23.7    35    3.3   247      6.0   851.2    0.00       0    30.6
 342   19:50   21.6    35    1.7   112      3.4   851.2    0.00       0    30.5
 342   20:00   19.5    36    4.8   124      6.1   851.1    0.00       0    30.3
 342   20:10   18.7    38    4.4   109      5.4   850.9    0.00       0    30.1
 342   20:20   18.9    38    5.2   126      6.6   851.1    0.00       0    29.8
 342   20:30   19.0    39    7.2   140      8.8   850.9    0.00       0    29.6
 342   20:40   19.1    39    7.7   137      9.3   850.8    0.00       0    29.4
 342   20:50   19.2    39    6.9   136      8.2   851.0    0.00       0    29.3
 342   21:00   18.8    39    4.1   150      6.8   851.3    0.00       0    29.2
 342   21:10   15.2    39    2.2   322      3.4   851.4    0.00       0    29.1
 342   21:20   15.4    41    3.2   198      5.6   851.2    0.00       0    29.1
 342   21:30   16.7    41    3.1   189      5.9   851.2    0.00       0    29.0
 342   21:40   16.4    41    3.0   248      5.4   851.3    0.00       0    28.9
 342   21:50   15.3    43    3.8   258      4.9   851.4    0.00       0    28.8
 342   22:00   15.1    42    3.3   240      4.5   851.4    0.00       0    28.7
 342   22:10   14.3    43    4.5   213      5.9   851.3    0.00       0    28.3
 342   22:20   15.4    43    3.4   219      4.9   851.3    0.00       0    28.6
 342   22:30   17.4    42    4.3   241      7.4   851.5    0.00       0    28.4
 342   22:40   19.1    39    3.4   256      6.4   851.7    0.00       0    28.5
 342   22:50   19.0    38    1.7   150      2.9   851.7    0.00       0    28.4
 342   23:00   19.1    39    2.0   143      5.0   851.5    0.00       0    28.7
 342   23:10   20.1    38    1.2   160      4.2   851.8    0.00       0    28.7
 342   23:20   20.5    38    2.7   175      4.4   851.8    0.00       0    28.8
 342   23:30   21.1    37    4.8   170      7.3   851.7    0.00       0    28.7
 342   23:40   22.5    36    5.1   166      6.4   851.5    0.00       0    28.7
 342   23:50   23.2    35    1.8    49      4.2   851.8    0.00       0    28.8
 343    0:00   22.4    35    1.2    32      3.5   851.7    0.00       0    28.9
 343    0:10   22.1    35    0.8    62      2.4   851.7    0.00       0    29.0
 343    0:20   22.0    35    1.2    68      2.3   851.6    0.00       0    28.9
 343    0:30   21.9    35    2.8    56      5.0   851.7    0.00       0    29.1
 343    0:40   21.8    36    3.7    56      5.1   851.5    0.00       0    29.3
 343    0:50   22.1    35    2.2    26      5.2   851.4    0.00       0    28.8
 343    1:00   20.9    35    3.6     5      5.3   851.7    0.00       0    28.8
 343    1:10   20.5    36    1.9    91      2.6   851.4    0.00       0    28.7
 343    1:20   21.2    36    1.8   194      3.1   851.7    0.00       0    28.8
 343    1:30   21.9    35    1.1   190      2.4   851.8    0.00       0    28.7
 343    1:40   22.3    34    1.7   124      2.8   851.8    0.00       0    28.9
 343    1:50   22.6    34    0.8    95      2.2   851.8    0.00       0    29.0
 343    2:00   22.6    34    1.9   170      3.2   851.6    0.00       0    28.7
 343    2:10   22.7    34    0.3   208      2.2   851.5    0.00       0    28.7
 343    2:20   22.2    34    2.7    21      6.7   851.5    0.00       0    28.9
 343    2:30   21.4    34    2.8     1      5.8   851.7    0.00       0    28.7
 343    2:40   20.6    35    2.7   338      5.6   851.8    0.00       0    28.7
 343    2:50   20.0    35    2.8     2      5.0   851.8    0.00       0    28.7
 343    3:00   18.9    36    1.9   117      3.4   851.5    0.00       0    28.3
 343    3:10   19.2    36    2.6   116      3.9   851.1    0.00       0    28.4
 343    3:20   20.1    37    2.2   244      3.7   851.3    0.00       0    28.3
 343    3:30   20.5    36    2.8   262      4.8   851.4    0.00       0    28.2
 343    3:40   20.8    37    3.8   244      5.8   851.4    0.00       0    28.4
 343    3:50   21.4    40    4.2   246      6.1   851.6    0.00       0    28.3
 343    4:00   21.9    40    3.4   240      6.1   851.8    0.00       0    28.4
 343    4:10   22.3    39    2.5   239      4.2   851.8    0.00       0    28.6
 343    4:20   22.8    38    2.7   158      4.2   851.7    0.00       0    28.6
 343    4:30   23.2    37    3.9   118      4.7   851.5    0.00       0    28.5
 343    4:40   23.7    36    3.8   127      4.9   851.5    0.00       0    28.6
 343    4:50   24.5    36    4.1   150      5.4   851.3    0.00       0    28.7
 343    5:00   24.4    35    4.9   161      5.6   851.2    0.00       0    28.6
 343    5:10   23.0    36    2.5   147      4.7   851.2    0.00       0    28.7
 343    5:20   22.2    37    2.7   118      4.0   851.2    0.00       0    28.4
 343    5:30   21.6    38    4.1   136      6.1   851.3    0.00       0    28.3
 343    5:40   20.5    38    6.0   359     10.2   851.5    0.00       0    28.2
 343    5:50   18.4    39    4.9     5      6.4   851.7    0.00       0    28.0
 343    6:00   18.3    40    2.2   237      4.4   851.9    0.00       0    28.0
 343    6:10   18.8    40    2.9   178      4.0   852.1    0.00       0    28.0
 343    6:20   19.5    39    3.7   153      4.5   852.1    0.00       0    28.0
 343    6:30   20.4    38    3.9   132      5.8   852.1    0.00       0    27.8
 343    6:40   21.2    38    3.1   134      4.5   852.2    0.00       0    27.9
 343    6:50   21.7    38    1.0   233      1.7   852.3    0.00       2    28.0
 343    7:00   21.6    38    2.0   173      2.8   852.4    0.00       5    28.1
 343    7:10   21.9    38    2.3   188      2.9   852.5    0.00       7    28.2
 343    7:20   21.9    38    3.1   185      4.5   852.5    0.00      11    28.2
 343    7:30   22.6    38    3.8   197      5.0   852.4    0.00      21    28.3
 343    7:40   23.5    37    2.5   193      4.3   852.4    0.00      29    28.3
 343    7:50   24.0    38    1.6   256      2.9   852.6    0.00      38    28.6
 343    8:00   23.6    38    2.5   262      4.3   852.8    0.00      39    28.7
 343    8:10   24.1    37    2.0   307      4.1   853.0    0.00      52    28.7
 343    8:20   24.8    36    1.5   289      3.9   853.0    0.00      77    29.0
 343    8:30   25.0    38    3.1   325      5.0   853.2    0.00      99    29.1
 343    8:40   26.2    37    2.9   318      4.1   853.3    0.00     220    29.4
 343    8:50   27.8    35    2.1   304      3.6   853.5    0.00     227    29.6
 343    9:00   29.7    31    0.8   297      2.0   853.6    0.00     204    30.1
 343    9:10   31.8    29    1.2   329      2.6   853.5    0.00     256    30.3
 343    9:20   31.3    29    2.5   321      4.5   853.9    0.00     274    30.7
 343    9:30   31.5    28    2.5   315      4.1   854.2    0.00     268    30.7
 343    9:40   32.4    27    2.4   300      5.3   854.3    0.00     297    30.9
 343    9:50   33.6    26    1.9   316      4.5   854.2    0.00     296    31.1
 343   10:00   33.4    26    1.8   317      3.9   854.2    0.00     274    31.2
 343   10:10   35.8    24    0.9   324      3.1   854.1    0.00     344    31.4
 343   10:20   35.5    25    1.6   338      3.7   854.1    0.00     334    31.5
 343   10:30   37.2    24    1.3   301      4.5   854.2    0.00     347    31.8
 343   10:40   36.5    24    0.9   322      3.7   853.7    0.00     315    31.7
 343   10:50   36.5    24    3.0   338      5.3   854.1    0.00     379    32.0
 343   11:00   36.9    24    3.8     1      6.6   853.6    0.00     375    32.1
 343   11:10   38.0    23    2.7    49      6.0   853.5    0.00     380    32.2
 343   11:20   39.3    22    2.6    42      4.9   853.8    0.00     385    32.3
 343   11:30   39.9    22    2.5    56      5.3   853.6    0.00     382    32.6
 343   11:40   40.4    21    3.3    94      6.4   853.3    0.00     382    33.1
 343   11:50   41.8    20    1.1    96      4.2   853.5    0.00     371    33.3
 343   12:00   43.6    19    1.6   332      4.4   853.5    0.00     378    33.3
 343   12:10   43.8    20    9.8   166     16.2   853.7    0.00     377    33.8
 343   12:20   43.3    20   14.6   161     19.2   853.5    0.00     368    34.7
 343   12:30   43.1    20   14.5   166     20.0   853.4    0.00     368    35.2
 343   12:40   43.9    19   15.2   164     20.7   853.2    0.00     363    35.5
 343   12:50   43.9    20   16.1   158     21.3   853.0    0.00     343    35.9
 343   13:00   44.0    20   16.7   157     21.0   852.9    0.00     340    36.2
 343   13:10   44.2    20   16.1   164     20.3   852.9    0.00     311    36.5
 343   13:20   43.9    20   15.4   162     19.0   853.0    0.00     230    36.6
 343   13:30   44.1    20   15.1   163     19.4   852.8    0.00     298    36.7
 343   13:40   44.4    20   15.7   163     18.6   852.6    0.00     281    37.0
 343   13:50   44.6    20   15.0   162     19.6   852.7    0.00     287    37.2
 343   14:00   44.6    20   15.7   163     19.4   852.6    0.00     263    37.4
 343   14:10   44.7    20   15.4   159     20.3   852.7    0.00     239    37.6
 343   14:20   44.6    20   15.7   158     21.3   852.8    0.00     224    37.7
 343   14:30   44.4    20   15.7   164     21.0   852.8    0.00     164    37.9
 343   14:40   44.6    20   15.2   165     20.3   852.7    0.00     182    37.9
 343   14:50   44.1    20   16.5   159     20.1   852.7    0.00     132    38.0
 343   15:00   43.9    21   15.8   162     21.0   852.8    0.00      94    38.1
 343   15:10   43.7    21   16.7   160     20.7   852.8    0.00      80    38.1
 343   15:20   43.7    21   14.9   161     19.1   852.8    0.00      92    38.1
 343   15:30   43.9    21   13.9   164     17.0   852.9    0.00     123    38.2
 343   15:40   44.1    21   13.7   163     17.9   853.0    0.00     114    38.5
 343   15:50   43.8    21   12.6   164     17.3   853.0    0.00      75    38.4
 343   16:00   43.4    21   12.3   163     17.7   853.2    0.00      52    38.3
 343   16:10   43.0    22   13.6   161     17.5   853.2    0.00      32    38.2
 343   16:20   42.6    22   11.8   167     17.0   853.2    0.00      17    38.1
 343   16:30   42.2    22   10.9   163     17.0   853.2    0.00       8    38.0
 343   16:40   41.5    22   10.8   164     15.2   853.1    0.00       3    38.0
 343   16:50   41.4    22   12.4   168     18.2   853.0    0.00       0    37.8
 343   17:00   41.2    23   12.1   167     17.8   853.0    0.00       0    37.7
 343   17:10   41.0    22    9.9   176     17.5   853.2    0.00       0    37.7
 343   17:20   40.4    23    9.8   170     17.5   853.4    0.00       0    37.5
 343   17:30   40.3    23   10.7   166     18.6   853.5    0.00       0    37.4

Return to St. George, Utah graphs page.


Western Regional Climate Center,wrcc@dri.edu